Roza A — TCRB7 — position and weather

sailwx.info

Track history (hours):
 
Tides and Currents Weather Stations Pressure Air Temp Water Temp Dewpoint Dewpoint Depression Visibility Wind Speed Wind Dir Waves Ship Positions

Roza A

Last reported at 2017-Nov-22 23:41 UTC. Time now 2017-Nov-23 15:18 UTC.
Position N 34°14' W 007°12'.

Length 168 m; draft 8.6 m.

Type: Ship (hazmat cat A). MMSI: 271001057.

Date/timePositionNaut miles runAvg speedWind from/ knotsBaromVisibWave heightAir tempDewpointWater temp
2017-Nov-22 23:41N 34°14' W 007°12'315.0
2017-Nov-22 23:30N 34°16' W 007°10'  
2017-Nov-18 08:35N 36°35' E 013°49'1113.4
2017-Nov-18 07:44N 36°32' E 014°02'313.4
2017-Nov-18 07:30N 36°31' E 014°06'713.4
2017-Nov-18 07:00N 36°29' E 014°13'713.3
2017-Nov-18 06:30N 36°27' E 014°21'713.2
2017-Nov-18 06:00N 36°25' E 014°29'713.0
2017-Nov-18 05:29N 36°23' E 014°37'612.8
2017-Nov-18 05:00N 36°22' E 014°45'43612.0
2017-Nov-16 16:38N 37°27' E 023°43'211.5
2017-Nov-16 16:29N 37°29' E 023°43'611.8
2017-Nov-16 16:00N 37°35' E 023°43'611.7
2017-Nov-16 15:30N 37°40' E 023°42'611.7
2017-Nov-16 15:01N 37°46' E 023°38'510.8
2017-Nov-16 14:31N 37°51' E 023°36'510.5
2017-Nov-16 14:01N 37°56' E 023°36'1 2.6
2017-Nov-16 13:28N 37°57' E 023°36'0 0.0
2017-Nov-16 12:58N 37°57' E 023°36'0 0.0
2017-Nov-16 12:28N 37°57' E 023°36'0 0.0
2017-Nov-16 11:58N 37°57' E 023°36'0 0.0
2017-Nov-16 11:28N 37°57' E 023°36'0 0.0
2017-Nov-16 10:58N 37°57' E 023°36'0 0.0
2017-Nov-16 10:28N 37°57' E 023°36'0 0.0
2017-Nov-16 09:58N 37°57' E 023°36'0 0.0
2017-Nov-16 09:28N 37°57' E 023°36'0 0.0
2017-Nov-16 08:55N 37°57' E 023°36'0 0.0
2017-Nov-16 08:28N 37°57' E 023°36'0 0.0
2017-Nov-16 07:58N 37°57' E 023°36'0 0.0
2017-Nov-16 07:28N 37°57' E 023°36'0 0.0
2017-Nov-16 06:58N 37°57' E 023°36'0 0.0
2017-Nov-16 06:28N 37°57' E 023°36'0 0.0
2017-Nov-16 05:58N 37°57' E 023°36'0 0.0
2017-Nov-16 05:28N 37°57' E 023°36'0 0.0
2017-Nov-16 04:58N 37°57' E 023°36'0 0.0
2017-Nov-16 04:28N 37°57' E 023°36'0 0.0
2017-Nov-16 03:58N 37°57' E 023°36'0 0.0
2017-Nov-16 03:28N 37°57' E 023°36'0 0.0
2017-Nov-16 02:58N 37°57' E 023°36'0 0.0
2017-Nov-16 02:28N 37°57' E 023°36'0 0.0
2017-Nov-16 01:58N 37°57' E 023°36'0 0.0
2017-Nov-16 01:28N 37°57' E 023°36'0 0.0
2017-Nov-16 00:58N 37°57' E 023°36'0 0.0
2017-Nov-16 00:28N 37°57' E 023°36'0 0.0
2017-Nov-15 23:58N 37°57' E 023°36'0 0.0
2017-Nov-15 23:28N 37°57' E 023°36'0 0.0
2017-Nov-15 22:58N 37°57' E 023°36'0 0.0
2017-Nov-15 22:28N 37°57' E 023°36'0 0.0
2017-Nov-15 21:58N 37°57' E 023°36'0 0.0
2017-Nov-15 21:30N 37°57' E 023°36'2 4.3
2017-Nov-15 21:00N 37°55' E 023°37'510.8
2017-Nov-15 20:30N 37°50' E 023°39'611.7
2017-Nov-15 20:00N 37°45' E 023°43'611.4
2017-Nov-15 19:30N 37°40' E 023°46'611.2
2017-Nov-15 18:59N 37°38' E 023°53'610.5
2017-Nov-15 18:27N 37°35' E 023°59'16 9.4
2017-Nov-15 16:48N 37°45' E 024°15'710.6
2017-Nov-15 16:07N 37°49' E 024°22'269 9.0
2017-Nov-14 10:12N 40°25' E 029°05'0 0.0
2017-Nov-13 22:25N 40°25' E 029°05'1 2.9
2017-Nov-13 21:56N 40°26' E 029°03'  
Track history (hours):
 
Tides and Currents Weather Stations Pressure Air Temp Water Temp Dewpoint Dewpoint Depression Visibility Wind Speed Wind Dir Waves Ship Positions

Roza A

Last reported at 2017-Nov-22 23:41 UTC. Time now 2017-Nov-23 15:18 UTC.
Position N 34°14' W 007°12'.

Length 168 m; draft 8.6 m.

Type: Ship (hazmat cat A). MMSI: 271001057.

Date/timePositionNaut miles runAvg speedWind from/ knotsBaromVisibWave heightAir tempDewpointWater temp
2017-Nov-22 23:41N 34°14' W 007°12'315.0
2017-Nov-22 23:30N 34°16' W 007°10'  
2017-Nov-18 08:35N 36°35' E 013°49'1113.4
2017-Nov-18 07:44N 36°32' E 014°02'313.4
2017-Nov-18 07:30N 36°31' E 014°06'713.4
2017-Nov-18 07:00N 36°29' E 014°13'713.3
2017-Nov-18 06:30N 36°27' E 014°21'713.2
2017-Nov-18 06:00N 36°25' E 014°29'713.0
2017-Nov-18 05:29N 36°23' E 014°37'612.8
2017-Nov-18 05:00N 36°22' E 014°45'43612.0
2017-Nov-16 16:38N 37°27' E 023°43'211.5
2017-Nov-16 16:29N 37°29' E 023°43'611.8
2017-Nov-16 16:00N 37°35' E 023°43'611.7
2017-Nov-16 15:30N 37°40' E 023°42'611.7
2017-Nov-16 15:01N 37°46' E 023°38'510.8
2017-Nov-16 14:31N 37°51' E 023°36'510.5
2017-Nov-16 14:01N 37°56' E 023°36'1 2.6
2017-Nov-16 13:28N 37°57' E 023°36'0 0.0
2017-Nov-16 12:58N 37°57' E 023°36'0 0.0
2017-Nov-16 12:28N 37°57' E 023°36'0 0.0
2017-Nov-16 11:58N 37°57' E 023°36'0 0.0
2017-Nov-16 11:28N 37°57' E 023°36'0 0.0
2017-Nov-16 10:58N 37°57' E 023°36'0 0.0
2017-Nov-16 10:28N 37°57' E 023°36'0 0.0
2017-Nov-16 09:58N 37°57' E 023°36'0 0.0
2017-Nov-16 09:28N 37°57' E 023°36'0 0.0
2017-Nov-16 08:55N 37°57' E 023°36'0 0.0
2017-Nov-16 08:28N 37°57' E 023°36'0 0.0
2017-Nov-16 07:58N 37°57' E 023°36'0 0.0
2017-Nov-16 07:28N 37°57' E 023°36'0 0.0
2017-Nov-16 06:58N 37°57' E 023°36'0 0.0
2017-Nov-16 06:28N 37°57' E 023°36'0 0.0
2017-Nov-16 05:58N 37°57' E 023°36'0 0.0
2017-Nov-16 05:28N 37°57' E 023°36'0 0.0
2017-Nov-16 04:58N 37°57' E 023°36'0 0.0
2017-Nov-16 04:28N 37°57' E 023°36'0 0.0
2017-Nov-16 03:58N 37°57' E 023°36'0 0.0
2017-Nov-16 03:28N 37°57' E 023°36'0 0.0
2017-Nov-16 02:58N 37°57' E 023°36'0 0.0
2017-Nov-16 02:28N 37°57' E 023°36'0 0.0
2017-Nov-16 01:58N 37°57' E 023°36'0 0.0
2017-Nov-16 01:28N 37°57' E 023°36'0 0.0
2017-Nov-16 00:58N 37°57' E 023°36'0 0.0
2017-Nov-16 00:28N 37°57' E 023°36'0 0.0
2017-Nov-15 23:58N 37°57' E 023°36'0 0.0
2017-Nov-15 23:28N 37°57' E 023°36'0 0.0
2017-Nov-15 22:58N 37°57' E 023°36'0 0.0
2017-Nov-15 22:28N 37°57' E 023°36'0 0.0
2017-Nov-15 21:58N 37°57' E 023°36'0 0.0
2017-Nov-15 21:30N 37°57' E 023°36'2 4.3
2017-Nov-15 21:00N 37°55' E 023°37'510.8
2017-Nov-15 20:30N 37°50' E 023°39'611.7
2017-Nov-15 20:00N 37°45' E 023°43'611.4
2017-Nov-15 19:30N 37°40' E 023°46'611.2
2017-Nov-15 18:59N 37°38' E 023°53'610.5
2017-Nov-15 18:27N 37°35' E 023°59'16 9.4
2017-Nov-15 16:48N 37°45' E 024°15'710.6
2017-Nov-15 16:07N 37°49' E 024°22'269 9.0
2017-Nov-14 10:12N 40°25' E 029°05'0 0.0
2017-Nov-13 22:25N 40°25' E 029°05'1 2.9
2017-Nov-13 21:56N 40°26' E 029°03'  

Dump ship's entire track history